sensor_id;sensor_type;location;lat;lon;timestamp;P1;durP1;ratioP1;P2;durP2;ratioP2
11827;SDS011;5971;49.646;8.568;2022-09-16T00:02:58;3.20;;;1.98;;
11827;SDS011;5971;49.646;8.568;2022-09-16T00:06:00;3.50;;;1.40;;
11827;SDS011;5971;49.646;8.568;2022-09-16T00:09:01;2.90;;;1.70;;
11827;SDS011;5971;49.646;8.568;2022-09-16T00:12:06;3.08;;;1.30;;
11827;SDS011;5971;49.646;8.568;2022-09-16T00:15:08;4.00;;;1.70;;
11827;SDS011;5971;49.646;8.568;2022-09-16T00:18:10;2.75;;;1.33;;
11827;SDS011;5971;49.646;8.568;2022-09-16T00:21:12;2.85;;;1.35;;
11827;SDS011;5971;49.646;8.568;2022-09-16T00:24:13;6.60;;;1.70;;
11827;SDS011;5971;49.646;8.568;2022-09-16T00:27:15;3.83;;;2.20;;
11827;SDS011;5971;49.646;8.568;2022-09-16T00:30:17;2.65;;;1.42;;
11827;SDS011;5971;49.646;8.568;2022-09-16T00:33:18;2.45;;;1.33;;
11827;SDS011;5971;49.646;8.568;2022-09-16T00:36:20;2.53;;;1.40;;
11827;SDS011;5971;49.646;8.568;2022-09-16T00:39:21;3.42;;;1.50;;
11827;SDS011;5971;49.646;8.568;2022-09-16T00:42:22;2.97;;;1.50;;
11827;SDS011;5971;49.646;8.568;2022-09-16T00:45:24;4.13;;;1.48;;
11827;SDS011;5971;49.646;8.568;2022-09-16T00:48:28;4.78;;;1.60;;
11827;SDS011;5971;49.646;8.568;2022-09-16T00:51:30;4.32;;;1.70;;
11827;SDS011;5971;49.646;8.568;2022-09-16T00:54:32;4.05;;;1.60;;
11827;SDS011;5971;49.646;8.568;2022-09-16T00:57:36;5.32;;;1.50;;
11827;SDS011;5971;49.646;8.568;2022-09-16T01:00:38;2.70;;;1.33;;
11827;SDS011;5971;49.646;8.568;2022-09-16T01:03:47;3.85;;;1.50;;
11827;SDS011;5971;49.646;8.568;2022-09-16T01:06:50;3.13;;;1.90;;
11827;SDS011;5971;49.646;8.568;2022-09-16T01:09:52;3.80;;;2.05;;
11827;SDS011;5971;49.646;8.568;2022-09-16T01:12:59;2.75;;;1.20;;
11827;SDS011;5971;49.646;8.568;2022-09-16T01:16:08;3.55;;;2.28;;
11827;SDS011;5971;49.646;8.568;2022-09-16T01:41:56;3.72;;;1.45;;
11827;SDS011;5971;49.646;8.568;2022-09-16T01:54:34;3.10;;;1.70;;
11827;SDS011;5971;49.646;8.568;2022-09-16T01:57:39;4.15;;;2.33;;
11827;SDS011;5971;49.646;8.568;2022-09-16T02:00:45;2.60;;;1.45;;
11827;SDS011;5971;49.646;8.568;2022-09-16T02:03:48;3.45;;;1.70;;
11827;SDS011;5971;49.646;8.568;2022-09-16T02:06:51;2.50;;;1.30;;
11827;SDS011;5971;49.646;8.568;2022-09-16T02:09:55;2.63;;;1.58;;
11827;SDS011;5971;49.646;8.568;2022-09-16T02:13:01;2.95;;;1.70;;
11827;SDS011;5971;49.646;8.568;2022-09-16T02:16:04;2.95;;;2.40;;
11827;SDS011;5971;49.646;8.568;2022-09-16T02:19:09;3.42;;;1.58;;
11827;SDS011;5971;49.646;8.568;2022-09-16T02:22:13;2.50;;;1.52;;
11827;SDS011;5971;49.646;8.568;2022-09-16T02:25:16;3.65;;;1.40;;
11827;SDS011;5971;49.646;8.568;2022-09-16T02:28:19;3.10;;;1.60;;
11827;SDS011;5971;49.646;8.568;2022-09-16T02:31:27;3.90;;;1.75;;
11827;SDS011;5971;49.646;8.568;2022-09-16T02:34:31;3.38;;;1.60;;
11827;SDS011;5971;49.646;8.568;2022-09-16T02:37:44;3.53;;;1.52;;
11827;SDS011;5971;49.646;8.568;2022-09-16T02:40:48;3.20;;;1.80;;
11827;SDS011;5971;49.646;8.568;2022-09-16T02:43:51;3.60;;;2.15;;
11827;SDS011;5971;49.646;8.568;2022-09-16T02:47:09;4.22;;;1.30;;
11827;SDS011;5971;49.646;8.568;2022-09-16T02:50:16;3.47;;;1.92;;
11827;SDS011;5971;49.646;8.568;2022-09-16T02:56:41;2.97;;;1.40;;
11827;SDS011;5971;49.646;8.568;2022-09-16T02:59:42;5.68;;;1.70;;
11827;SDS011;5971;49.646;8.568;2022-09-16T03:02:44;2.42;;;1.38;;
11827;SDS011;5971;49.646;8.568;2022-09-16T03:06:28;3.67;;;1.50;;
11827;SDS011;5971;49.646;8.568;2022-09-16T03:09:10;7.18;;;1.60;;
11827;SDS011;5971;49.646;8.568;2022-09-16T03:19:01;2.90;;;1.40;;
11827;SDS011;5971;49.646;8.568;2022-09-16T03:24:55;4.03;;;1.30;;
11827;SDS011;5971;49.646;8.568;2022-09-16T03:28:00;3.42;;;1.52;;
11827;SDS011;5971;49.646;8.568;2022-09-16T03:31:06;3.40;;;1.30;;
11827;SDS011;5971;49.646;8.568;2022-09-16T03:34:30;4.13;;;1.30;;
11827;SDS011;5971;49.646;8.568;2022-09-16T03:37:31;3.80;;;1.13;;
11827;SDS011;5971;49.646;8.568;2022-09-16T03:40:34;2.50;;;1.80;;
11827;SDS011;5971;49.646;8.568;2022-09-16T03:43:36;3.15;;;1.27;;
11827;SDS011;5971;49.646;8.568;2022-09-16T03:46:37;3.15;;;1.50;;
11827;SDS011;5971;49.646;8.568;2022-09-16T03:49:38;2.90;;;1.33;;
11827;SDS011;5971;49.646;8.568;2022-09-16T03:52:40;5.72;;;1.60;;
11827;SDS011;5971;49.646;8.568;2022-09-16T03:55:41;2.78;;;1.45;;
11827;SDS011;5971;49.646;8.568;2022-09-16T03:58:42;3.60;;;2.25;;
11827;SDS011;5971;49.646;8.568;2022-09-16T04:01:44;2.88;;;1.42;;
11827;SDS011;5971;49.646;8.568;2022-09-16T04:04:45;3.35;;;1.52;;
11827;SDS011;5971;49.646;8.568;2022-09-16T04:07:47;3.03;;;1.65;;
11827;SDS011;5971;49.646;8.568;2022-09-16T04:10:55;3.03;;;1.60;;
11827;SDS011;5971;49.646;8.568;2022-09-16T04:13:57;5.47;;;2.13;;
11827;SDS011;5971;49.646;8.568;2022-09-16T04:16:59;2.70;;;1.65;;
11827;SDS011;5971;49.646;8.568;2022-09-16T04:20:00;4.05;;;1.58;;
11827;SDS011;5971;49.646;8.568;2022-09-16T04:23:01;5.18;;;2.00;;
11827;SDS011;5971;49.646;8.568;2022-09-16T04:26:03;5.65;;;2.05;;
11827;SDS011;5971;49.646;8.568;2022-09-16T04:29:04;3.83;;;1.88;;
11827;SDS011;5971;49.646;8.568;2022-09-16T04:32:05;4.78;;;2.00;;
11827;SDS011;5971;49.646;8.568;2022-09-16T04:35:07;5.70;;;1.98;;
11827;SDS011;5971;49.646;8.568;2022-09-16T04:38:08;3.85;;;1.50;;
11827;SDS011;5971;49.646;8.568;2022-09-16T04:41:14;4.78;;;1.60;;
11827;SDS011;5971;49.646;8.568;2022-09-16T04:44:16;4.63;;;1.77;;
11827;SDS011;5971;49.646;8.568;2022-09-16T04:47:17;4.15;;;2.83;;
11827;SDS011;5971;49.646;8.568;2022-09-16T04:50:18;6.35;;;2.50;;
11827;SDS011;5971;49.646;8.568;2022-09-16T04:53:20;4.88;;;2.35;;
11827;SDS011;5971;49.646;8.568;2022-09-16T04:56:23;6.22;;;2.40;;
11827;SDS011;5971;49.646;8.568;2022-09-16T04:59:24;4.90;;;2.22;;
11827;SDS011;5971;49.646;8.568;2022-09-16T05:02:25;5.35;;;2.85;;
11827;SDS011;5971;49.646;8.568;2022-09-16T05:05:28;5.43;;;2.13;;
11827;SDS011;5971;49.646;8.568;2022-09-16T05:08:29;3.33;;;2.13;;
11827;SDS011;5971;49.646;8.568;2022-09-16T05:11:32;4.88;;;1.63;;
11827;SDS011;5971;49.646;8.568;2022-09-16T05:14:34;3.92;;;2.38;;
11827;SDS011;5971;49.646;8.568;2022-09-16T05:17:35;4.50;;;1.88;;
11827;SDS011;5971;49.646;8.568;2022-09-16T05:20:55;3.90;;;1.70;;
11827;SDS011;5971;49.646;8.568;2022-09-16T05:23:59;3.78;;;1.63;;
11827;SDS011;5971;49.646;8.568;2022-09-16T05:27:00;4.88;;;2.53;;
11827;SDS011;5971;49.646;8.568;2022-09-16T05:30:01;4.75;;;2.10;;
11827;SDS011;5971;49.646;8.568;2022-09-16T05:33:03;4.85;;;1.92;;
11827;SDS011;5971;49.646;8.568;2022-09-16T05:36:05;5.57;;;2.00;;
11827;SDS011;5971;49.646;8.568;2022-09-16T05:39:07;3.33;;;1.80;;
11827;SDS011;5971;49.646;8.568;2022-09-16T05:42:25;6.05;;;2.80;;
11827;SDS011;5971;49.646;8.568;2022-09-16T05:45:26;6.78;;;2.78;;
11827;SDS011;5971;49.646;8.568;2022-09-16T05:48:33;4.70;;;2.35;;
11827;SDS011;5971;49.646;8.568;2022-09-16T05:51:35;4.97;;;1.80;;
11827;SDS011;5971;49.646;8.568;2022-09-16T05:54:37;4.53;;;2.22;;
11827;SDS011;5971;49.646;8.568;2022-09-16T05:57:38;4.07;;;2.03;;
11827;SDS011;5971;49.646;8.568;2022-09-16T06:00:39;5.95;;;2.15;;
11827;SDS011;5971;49.646;8.568;2022-09-16T06:03:42;4.88;;;2.20;;
11827;SDS011;5971;49.646;8.568;2022-09-16T06:06:44;3.97;;;2.47;;
11827;SDS011;5971;49.646;8.568;2022-09-16T06:09:45;3.47;;;2.50;;
11827;SDS011;5971;49.646;8.568;2022-09-16T06:12:47;6.28;;;1.88;;
11827;SDS011;5971;49.646;8.568;2022-09-16T06:15:49;5.55;;;2.10;;
11827;SDS011;5971;49.646;8.568;2022-09-16T06:18:51;4.20;;;1.83;;
11827;SDS011;5971;49.646;8.568;2022-09-16T06:21:52;4.65;;;2.28;;
11827;SDS011;5971;49.646;8.568;2022-09-16T06:24:54;3.17;;;1.90;;
11827;SDS011;5971;49.646;8.568;2022-09-16T06:27:55;5.35;;;1.92;;
11827;SDS011;5971;49.646;8.568;2022-09-16T06:31:06;3.33;;;2.10;;
11827;SDS011;5971;49.646;8.568;2022-09-16T06:34:12;3.72;;;1.95;;
11827;SDS011;5971;49.646;8.568;2022-09-16T06:37:13;3.55;;;2.30;;
11827;SDS011;5971;49.646;8.568;2022-09-16T06:40:15;3.78;;;1.23;;
11827;SDS011;5971;49.646;8.568;2022-09-16T06:43:17;4.32;;;1.67;;
11827;SDS011;5971;49.646;8.568;2022-09-16T06:46:23;4.18;;;2.10;;
11827;SDS011;5971;49.646;8.568;2022-09-16T06:49:24;5.43;;;1.63;;
11827;SDS011;5971;49.646;8.568;2022-09-16T06:52:26;3.65;;;2.00;;
11827;SDS011;5971;49.646;8.568;2022-09-16T06:55:28;2.75;;;1.55;;
11827;SDS011;5971;49.646;8.568;2022-09-16T06:58:32;3.45;;;1.63;;
11827;SDS011;5971;49.646;8.568;2022-09-16T07:01:34;4.90;;;1.80;;
11827;SDS011;5971;49.646;8.568;2022-09-16T07:04:36;4.50;;;2.00;;
11827;SDS011;5971;49.646;8.568;2022-09-16T07:07:37;4.32;;;1.50;;
11827;SDS011;5971;49.646;8.568;2022-09-16T07:10:39;2.95;;;1.83;;
11827;SDS011;5971;49.646;8.568;2022-09-16T07:13:41;3.58;;;1.70;;
11827;SDS011;5971;49.646;8.568;2022-09-16T07:16:42;2.83;;;1.48;;
11827;SDS011;5971;49.646;8.568;2022-09-16T07:19:44;3.75;;;1.33;;
11827;SDS011;5971;49.646;8.568;2022-09-16T07:22:46;2.85;;;1.77;;
11827;SDS011;5971;49.646;8.568;2022-09-16T07:25:58;2.80;;;1.77;;
11827;SDS011;5971;49.646;8.568;2022-09-16T07:29:00;3.58;;;1.70;;
11827;SDS011;5971;49.646;8.568;2022-09-16T07:32:03;3.58;;;1.67;;
11827;SDS011;5971;49.646;8.568;2022-09-16T07:35:04;2.63;;;1.73;;
11827;SDS011;5971;49.646;8.568;2022-09-16T07:38:06;2.15;;;1.50;;
11827;SDS011;5971;49.646;8.568;2022-09-16T07:41:14;2.83;;;1.70;;
11827;SDS011;5971;49.646;8.568;2022-09-16T07:44:16;2.22;;;1.20;;
11827;SDS011;5971;49.646;8.568;2022-09-16T07:47:18;1.95;;;1.08;;
11827;SDS011;5971;49.646;8.568;2022-09-16T07:50:22;2.78;;;1.58;;
11827;SDS011;5971;49.646;8.568;2022-09-16T07:53:24;2.17;;;0.88;;
11827;SDS011;5971;49.646;8.568;2022-09-16T07:56:31;2.28;;;1.52;;
11827;SDS011;5971;49.646;8.568;2022-09-16T07:59:34;2.22;;;1.10;;
11827;SDS011;5971;49.646;8.568;2022-09-16T08:02:35;2.35;;;1.02;;
11827;SDS011;5971;49.646;8.568;2022-09-16T08:05:37;2.10;;;1.40;;
11827;SDS011;5971;49.646;8.568;2022-09-16T08:08:38;4.35;;;1.38;;
11827;SDS011;5971;49.646;8.568;2022-09-16T08:11:39;1.88;;;1.33;;
11827;SDS011;5971;49.646;8.568;2022-09-16T08:14:41;3.38;;;1.52;;
11827;SDS011;5971;49.646;8.568;2022-09-16T08:17:42;2.63;;;1.60;;
11827;SDS011;5971;49.646;8.568;2022-09-16T08:20:43;3.20;;;1.60;;
11827;SDS011;5971;49.646;8.568;2022-09-16T08:23:44;4.47;;;1.35;;
11827;SDS011;5971;49.646;8.568;2022-09-16T08:26:46;3.38;;;1.50;;
11827;SDS011;5971;49.646;8.568;2022-09-16T08:29:47;2.28;;;1.50;;
11827;SDS011;5971;49.646;8.568;2022-09-16T08:32:58;3.45;;;1.70;;
11827;SDS011;5971;49.646;8.568;2022-09-16T08:39:00;1.67;;;1.17;;
11827;SDS011;5971;49.646;8.568;2022-09-16T08:42:13;2.33;;;1.38;;
11827;SDS011;5971;49.646;8.568;2022-09-16T08:48:45;2.88;;;1.08;;
11827;SDS011;5971;49.646;8.568;2022-09-16T08:51:51;2.15;;;1.38;;
11827;SDS011;5971;49.646;8.568;2022-09-16T08:54:55;2.00;;;1.77;;
11827;SDS011;5971;49.646;8.568;2022-09-16T08:58:00;2.17;;;1.20;;
11827;SDS011;5971;49.646;8.568;2022-09-16T09:01:03;2.35;;;1.33;;
11827;SDS011;5971;49.646;8.568;2022-09-16T09:04:11;1.92;;;1.17;;
11827;SDS011;5971;49.646;8.568;2022-09-16T09:26:53;1.85;;;1.13;;
11827;SDS011;5971;49.646;8.568;2022-09-16T09:40:02;2.00;;;1.55;;
11827;SDS011;5971;49.646;8.568;2022-09-16T09:46:44;1.70;;;0.90;;
11827;SDS011;5971;49.646;8.568;2022-09-16T09:49:52;1.70;;;1.17;;
11827;SDS011;5971;49.646;8.568;2022-09-16T09:53:42;3.60;;;1.25;;
11827;SDS011;5971;49.646;8.568;2022-09-16T09:56:36;2.65;;;1.33;;
11827;SDS011;5971;49.646;8.568;2022-09-16T10:03:01;2.08;;;1.35;;
11827;SDS011;5971;49.646;8.568;2022-09-16T10:06:04;3.75;;;1.30;;
11827;SDS011;5971;49.646;8.568;2022-09-16T10:09:07;2.92;;;1.17;;
11827;SDS011;5971;49.646;8.568;2022-09-16T10:12:09;2.47;;;1.50;;
11827;SDS011;5971;49.646;8.568;2022-09-16T10:21:22;1.70;;;1.00;;
11827;SDS011;5971;49.646;8.568;2022-09-16T10:24:28;2.25;;;0.90;;
11827;SDS011;5971;49.646;8.568;2022-09-16T10:27:30;2.38;;;1.10;;
11827;SDS011;5971;49.646;8.568;2022-09-16T10:30:42;2.20;;;1.00;;
11827;SDS011;5971;49.646;8.568;2022-09-16T10:33:43;2.40;;;1.05;;
11827;SDS011;5971;49.646;8.568;2022-09-16T10:36:45;3.60;;;1.23;;
11827;SDS011;5971;49.646;8.568;2022-09-16T10:39:50;1.77;;;1.13;;
11827;SDS011;5971;49.646;8.568;2022-09-16T10:42:53;2.22;;;1.15;;
11827;SDS011;5971;49.646;8.568;2022-09-16T10:45:57;3.03;;;1.23;;
11827;SDS011;5971;49.646;8.568;2022-09-16T10:48:59;1.67;;;1.20;;
11827;SDS011;5971;49.646;8.568;2022-09-16T10:52:17;2.05;;;1.17;;
11827;SDS011;5971;49.646;8.568;2022-09-16T10:55:28;1.98;;;1.23;;
11827;SDS011;5971;49.646;8.568;2022-09-16T10:58:29;2.95;;;1.42;;
11827;SDS011;5971;49.646;8.568;2022-09-16T11:01:50;2.38;;;1.27;;
11827;SDS011;5971;49.646;8.568;2022-09-16T11:05:00;1.13;;;0.90;;
11827;SDS011;5971;49.646;8.568;2022-09-16T11:08:08;1.20;;;0.68;;
11827;SDS011;5971;49.646;8.568;2022-09-16T11:14:23;3.42;;;1.15;;
11827;SDS011;5971;49.646;8.568;2022-09-16T11:17:49;1.90;;;1.50;;
11827;SDS011;5971;49.646;8.568;2022-09-16T11:24:06;2.33;;;1.20;;
11827;SDS011;5971;49.646;8.568;2022-09-16T11:30:20;1.45;;;1.00;;
11827;SDS011;5971;49.646;8.568;2022-09-16T11:33:34;2.35;;;1.10;;
11827;SDS011;5971;49.646;8.568;2022-09-16T11:36:43;1.60;;;1.00;;
11827;SDS011;5971;49.646;8.568;2022-09-16T11:39:51;1.35;;;0.80;;
11827;SDS011;5971;49.646;8.568;2022-09-16T11:49:32;2.83;;;1.08;;
11827;SDS011;5971;49.646;8.568;2022-09-16T11:56:17;1.00;;;0.68;;
11827;SDS011;5971;49.646;8.568;2022-09-16T12:11:44;1.02;;;0.85;;
11827;SDS011;5971;49.646;8.568;2022-09-16T12:14:50;1.30;;;0.90;;
11827;SDS011;5971;49.646;8.568;2022-09-16T12:17:57;1.83;;;0.80;;
11827;SDS011;5971;49.646;8.568;2022-09-16T12:24:11;1.60;;;1.00;;
11827;SDS011;5971;49.646;8.568;2022-09-16T12:27:20;2.33;;;1.10;;
11827;SDS011;5971;49.646;8.568;2022-09-16T12:33:26;1.83;;;0.98;;
11827;SDS011;5971;49.646;8.568;2022-09-16T12:36:32;1.38;;;1.10;;
11827;SDS011;5971;49.646;8.568;2022-09-16T12:39:34;2.60;;;1.42;;
11827;SDS011;5971;49.646;8.568;2022-09-16T12:58:40;1.73;;;1.10;;
11827;SDS011;5971;49.646;8.568;2022-09-16T13:01:48;2.05;;;0.90;;
11827;SDS011;5971;49.646;8.568;2022-09-16T13:04:50;2.40;;;1.00;;
11827;SDS011;5971;49.646;8.568;2022-09-16T13:07:53;2.10;;;1.10;;
11827;SDS011;5971;49.646;8.568;2022-09-16T13:14:23;1.13;;;0.85;;
11827;SDS011;5971;49.646;8.568;2022-09-16T13:17:32;1.88;;;1.55;;
11827;SDS011;5971;49.646;8.568;2022-09-16T13:20:34;1.88;;;1.23;;
11827;SDS011;5971;49.646;8.568;2022-09-16T13:23:40;1.90;;;1.20;;
11827;SDS011;5971;49.646;8.568;2022-09-16T13:26:43;6.03;;;1.73;;
11827;SDS011;5971;49.646;8.568;2022-09-16T13:29:45;1.25;;;0.95;;
11827;SDS011;5971;49.646;8.568;2022-09-16T13:36:01;2.65;;;1.30;;
11827;SDS011;5971;49.646;8.568;2022-09-16T13:39:04;2.00;;;1.23;;
11827;SDS011;5971;49.646;8.568;2022-09-16T13:42:09;1.77;;;1.13;;
11827;SDS011;5971;49.646;8.568;2022-09-16T13:45:37;2.65;;;1.20;;
11827;SDS011;5971;49.646;8.568;2022-09-16T13:48:41;2.35;;;1.52;;
11827;SDS011;5971;49.646;8.568;2022-09-16T13:51:45;2.13;;;0.93;;
11827;SDS011;5971;49.646;8.568;2022-09-16T13:54:47;2.13;;;1.23;;
11827;SDS011;5971;49.646;8.568;2022-09-16T13:58:23;2.88;;;1.25;;
11827;SDS011;5971;49.646;8.568;2022-09-16T14:01:31;2.00;;;1.13;;
11827;SDS011;5971;49.646;8.568;2022-09-16T14:08:07;2.00;;;1.33;;
11827;SDS011;5971;49.646;8.568;2022-09-16T14:14:20;1.98;;;1.38;;
11827;SDS011;5971;49.646;8.568;2022-09-16T14:17:43;2.78;;;1.20;;
11827;SDS011;5971;49.646;8.568;2022-09-16T14:21:04;1.25;;;1.00;;
11827;SDS011;5971;49.646;8.568;2022-09-16T14:24:19;1.90;;;1.08;;
11827;SDS011;5971;49.646;8.568;2022-09-16T14:27:29;1.65;;;1.13;;
11827;SDS011;5971;49.646;8.568;2022-09-16T14:36:34;1.00;;;0.52;;
11827;SDS011;5971;49.646;8.568;2022-09-16T14:42:47;0.98;;;0.70;;
11827;SDS011;5971;49.646;8.568;2022-09-16T14:45:50;0.75;;;0.63;;
11827;SDS011;5971;49.646;8.568;2022-09-16T14:48:52;2.38;;;0.90;;
11827;SDS011;5971;49.646;8.568;2022-09-16T14:51:57;1.30;;;1.10;;
11827;SDS011;5971;49.646;8.568;2022-09-16T14:54:59;1.13;;;1.02;;
11827;SDS011;5971;49.646;8.568;2022-09-16T14:58:00;1.20;;;1.08;;
11827;SDS011;5971;49.646;8.568;2022-09-16T15:01:03;1.23;;;1.13;;
11827;SDS011;5971;49.646;8.568;2022-09-16T15:04:16;2.65;;;1.00;;
11827;SDS011;5971;49.646;8.568;2022-09-16T15:07:26;2.92;;;1.13;;
11827;SDS011;5971;49.646;8.568;2022-09-16T15:10:27;2.50;;;1.13;;
11827;SDS011;5971;49.646;8.568;2022-09-16T15:13:49;0.70;;;0.52;;
11827;SDS011;5971;49.646;8.568;2022-09-16T15:16:52;1.85;;;1.40;;
11827;SDS011;5971;49.646;8.568;2022-09-16T15:19:56;1.30;;;1.00;;
11827;SDS011;5971;49.646;8.568;2022-09-16T15:22:57;0.93;;;0.82;;
11827;SDS011;5971;49.646;8.568;2022-09-16T15:26:06;1.10;;;0.90;;
11827;SDS011;5971;49.646;8.568;2022-09-16T15:29:26;1.20;;;0.90;;
11827;SDS011;5971;49.646;8.568;2022-09-16T15:32:28;1.08;;;0.98;;
11827;SDS011;5971;49.646;8.568;2022-09-16T15:35:31;1.60;;;1.10;;
11827;SDS011;5971;49.646;8.568;2022-09-16T15:38:35;1.27;;;0.90;;
11827;SDS011;5971;49.646;8.568;2022-09-16T15:41:42;1.05;;;0.70;;
11827;SDS011;5971;49.646;8.568;2022-09-16T15:44:47;0.95;;;0.57;;
11827;SDS011;5971;49.646;8.568;2022-09-16T15:47:54;3.53;;;1.65;;
11827;SDS011;5971;49.646;8.568;2022-09-16T15:50:58;0.88;;;0.57;;
11827;SDS011;5971;49.646;8.568;2022-09-16T15:54:15;2.30;;;1.02;;
11827;SDS011;5971;49.646;8.568;2022-09-16T15:57:25;3.20;;;1.60;;
11827;SDS011;5971;49.646;8.568;2022-09-16T16:00:28;3.15;;;0.85;;
11827;SDS011;5971;49.646;8.568;2022-09-16T16:03:46;1.10;;;0.68;;
11827;SDS011;5971;49.646;8.568;2022-09-16T16:06:54;1.83;;;0.80;;
11827;SDS011;5971;49.646;8.568;2022-09-16T16:09:55;1.30;;;0.80;;
11827;SDS011;5971;49.646;8.568;2022-09-16T16:13:10;0.82;;;0.63;;
11827;SDS011;5971;49.646;8.568;2022-09-16T16:16:12;0.68;;;0.57;;
11827;SDS011;5971;49.646;8.568;2022-09-16T16:19:13;0.73;;;0.50;;
11827;SDS011;5971;49.646;8.568;2022-09-16T16:22:15;1.15;;;0.70;;
11827;SDS011;5971;49.646;8.568;2022-09-16T16:25:17;0.63;;;0.50;;
11827;SDS011;5971;49.646;8.568;2022-09-16T16:28:18;0.60;;;0.60;;
11827;SDS011;5971;49.646;8.568;2022-09-16T16:31:20;0.80;;;0.50;;
11827;SDS011;5971;49.646;8.568;2022-09-16T16:34:21;0.90;;;0.43;;
11827;SDS011;5971;49.646;8.568;2022-09-16T16:37:23;1.15;;;0.60;;
11827;SDS011;5971;49.646;8.568;2022-09-16T16:40:48;1.75;;;0.40;;
11827;SDS011;5971;49.646;8.568;2022-09-16T16:43:50;1.77;;;0.60;;
11827;SDS011;5971;49.646;8.568;2022-09-16T16:46:52;1.05;;;0.43;;
11827;SDS011;5971;49.646;8.568;2022-09-16T16:49:53;1.48;;;0.60;;
11827;SDS011;5971;49.646;8.568;2022-09-16T16:52:55;0.73;;;0.40;;
11827;SDS011;5971;49.646;8.568;2022-09-16T16:56:10;1.75;;;0.60;;
11827;SDS011;5971;49.646;8.568;2022-09-16T16:59:15;3.33;;;0.50;;
11827;SDS011;5971;49.646;8.568;2022-09-16T17:02:17;0.95;;;0.60;;
11827;SDS011;5971;49.646;8.568;2022-09-16T17:05:18;1.35;;;0.60;;
11827;SDS011;5971;49.646;8.568;2022-09-16T17:08:20;0.95;;;0.57;;
11827;SDS011;5971;49.646;8.568;2022-09-16T17:11:21;1.15;;;0.60;;
11827;SDS011;5971;49.646;8.568;2022-09-16T17:14:27;1.25;;;0.80;;
11827;SDS011;5971;49.646;8.568;2022-09-16T17:17:29;0.73;;;0.52;;
11827;SDS011;5971;49.646;8.568;2022-09-16T17:20:32;1.02;;;0.65;;
11827;SDS011;5971;49.646;8.568;2022-09-16T17:23:33;1.50;;;0.88;;
11827;SDS011;5971;49.646;8.568;2022-09-16T17:26:34;1.80;;;0.70;;
11827;SDS011;5971;49.646;8.568;2022-09-16T17:29:36;2.10;;;0.95;;
11827;SDS011;5971;49.646;8.568;2022-09-16T17:32:37;0.98;;;0.60;;
11827;SDS011;5971;49.646;8.568;2022-09-16T17:35:38;2.38;;;1.40;;
11827;SDS011;5971;49.646;8.568;2022-09-16T17:38:40;1.08;;;0.73;;
11827;SDS011;5971;49.646;8.568;2022-09-16T17:41:42;1.48;;;0.73;;
11827;SDS011;5971;49.646;8.568;2022-09-16T17:44:43;2.47;;;0.77;;
11827;SDS011;5971;49.646;8.568;2022-09-16T17:47:45;1.02;;;0.70;;
11827;SDS011;5971;49.646;8.568;2022-09-16T17:50:49;1.52;;;1.10;;
11827;SDS011;5971;49.646;8.568;2022-09-16T17:53:51;2.78;;;1.40;;
11827;SDS011;5971;49.646;8.568;2022-09-16T17:56:52;3.15;;;2.33;;
11827;SDS011;5971;49.646;8.568;2022-09-16T17:59:54;1.65;;;1.02;;
11827;SDS011;5971;49.646;8.568;2022-09-16T18:02:55;1.80;;;1.02;;
11827;SDS011;5971;49.646;8.568;2022-09-16T18:06:07;1.85;;;0.82;;
11827;SDS011;5971;49.646;8.568;2022-09-16T18:09:09;1.90;;;1.13;;
11827;SDS011;5971;49.646;8.568;2022-09-16T18:12:11;2.03;;;1.02;;
11827;SDS011;5971;49.646;8.568;2022-09-16T18:15:12;2.70;;;0.93;;
11827;SDS011;5971;49.646;8.568;2022-09-16T18:18:13;4.97;;;0.93;;
11827;SDS011;5971;49.646;8.568;2022-09-16T18:21:17;1.83;;;0.95;;
11827;SDS011;5971;49.646;8.568;2022-09-16T18:24:19;1.52;;;0.90;;
11827;SDS011;5971;49.646;8.568;2022-09-16T18:27:21;1.63;;;0.90;;
11827;SDS011;5971;49.646;8.568;2022-09-16T18:30:22;1.38;;;0.70;;
11827;SDS011;5971;49.646;8.568;2022-09-16T18:33:25;5.13;;;1.45;;
11827;SDS011;5971;49.646;8.568;2022-09-16T18:36:26;2.00;;;0.85;;
11827;SDS011;5971;49.646;8.568;2022-09-16T18:39:29;1.13;;;0.70;;
11827;SDS011;5971;49.646;8.568;2022-09-16T18:42:31;1.45;;;0.95;;
11827;SDS011;5971;49.646;8.568;2022-09-16T18:45:32;1.52;;;0.90;;
11827;SDS011;5971;49.646;8.568;2022-09-16T18:48:34;2.20;;;1.00;;
11827;SDS011;5971;49.646;8.568;2022-09-16T18:51:36;1.98;;;1.13;;
11827;SDS011;5971;49.646;8.568;2022-09-16T18:54:38;3.60;;;1.13;;
11827;SDS011;5971;49.646;8.568;2022-09-16T18:57:39;1.58;;;0.90;;
11827;SDS011;5971;49.646;8.568;2022-09-16T19:00:40;2.10;;;0.90;;
11827;SDS011;5971;49.646;8.568;2022-09-16T19:03:42;1.83;;;1.00;;
11827;SDS011;5971;49.646;8.568;2022-09-16T19:06:46;3.00;;;1.40;;
11827;SDS011;5971;49.646;8.568;2022-09-16T19:09:47;3.65;;;1.83;;
11827;SDS011;5971;49.646;8.568;2022-09-16T19:12:49;4.40;;;2.33;;
11827;SDS011;5971;49.646;8.568;2022-09-16T19:15:54;3.60;;;1.55;;
11827;SDS011;5971;49.646;8.568;2022-09-16T19:18:55;2.78;;;1.38;;
11827;SDS011;5971;49.646;8.568;2022-09-16T19:21:56;3.50;;;1.42;;
11827;SDS011;5971;49.646;8.568;2022-09-16T19:24:58;4.28;;;1.35;;
11827;SDS011;5971;49.646;8.568;2022-09-16T19:28:01;3.28;;;1.83;;
11827;SDS011;5971;49.646;8.568;2022-09-16T19:31:07;3.22;;;1.60;;
11827;SDS011;5971;49.646;8.568;2022-09-16T19:34:08;5.72;;;2.20;;
11827;SDS011;5971;49.646;8.568;2022-09-16T19:37:10;4.07;;;1.80;;
11827;SDS011;5971;49.646;8.568;2022-09-16T19:40:11;4.72;;;1.95;;
11827;SDS011;5971;49.646;8.568;2022-09-16T19:43:13;3.88;;;2.05;;
11827;SDS011;5971;49.646;8.568;2022-09-16T19:46:15;3.55;;;1.60;;
11827;SDS011;5971;49.646;8.568;2022-09-16T19:49:18;3.08;;;1.88;;
11827;SDS011;5971;49.646;8.568;2022-09-16T19:52:20;6.78;;;3.42;;
11827;SDS011;5971;49.646;8.568;2022-09-16T19:55:21;4.85;;;2.53;;
11827;SDS011;5971;49.646;8.568;2022-09-16T19:58:22;3.47;;;2.15;;
11827;SDS011;5971;49.646;8.568;2022-09-16T20:01:25;6.03;;;2.95;;
11827;SDS011;5971;49.646;8.568;2022-09-16T20:04:26;6.90;;;2.97;;
11827;SDS011;5971;49.646;8.568;2022-09-16T20:07:29;2.63;;;1.17;;
11827;SDS011;5971;49.646;8.568;2022-09-16T20:10:31;2.65;;;1.25;;
11827;SDS011;5971;49.646;8.568;2022-09-16T20:13:32;3.17;;;1.38;;
11827;SDS011;5971;49.646;8.568;2022-09-16T20:16:35;2.83;;;1.20;;
11827;SDS011;5971;49.646;8.568;2022-09-16T20:19:36;1.63;;;0.90;;
11827;SDS011;5971;49.646;8.568;2022-09-16T20:22:38;2.70;;;1.10;;
11827;SDS011;5971;49.646;8.568;2022-09-16T20:25:39;2.53;;;1.17;;
11827;SDS011;5971;49.646;8.568;2022-09-16T20:28:41;1.52;;;0.80;;
11827;SDS011;5971;49.646;8.568;2022-09-16T20:31:42;2.08;;;1.10;;
11827;SDS011;5971;49.646;8.568;2022-09-16T20:34:45;1.67;;;1.00;;
11827;SDS011;5971;49.646;8.568;2022-09-16T20:37:46;2.08;;;1.05;;
11827;SDS011;5971;49.646;8.568;2022-09-16T20:40:47;1.52;;;0.88;;
11827;SDS011;5971;49.646;8.568;2022-09-16T20:43:49;1.60;;;0.93;;
11827;SDS011;5971;49.646;8.568;2022-09-16T20:46:50;3.70;;;0.95;;
11827;SDS011;5971;49.646;8.568;2022-09-16T20:49:52;1.52;;;1.10;;
11827;SDS011;5971;49.646;8.568;2022-09-16T20:52:53;1.73;;;0.80;;
11827;SDS011;5971;49.646;8.568;2022-09-16T20:55:58;1.50;;;0.75;;
11827;SDS011;5971;49.646;8.568;2022-09-16T20:59:00;1.38;;;0.88;;
11827;SDS011;5971;49.646;8.568;2022-09-16T21:02:01;1.85;;;1.08;;
11827;SDS011;5971;49.646;8.568;2022-09-16T21:05:04;2.35;;;1.00;;
11827;SDS011;5971;49.646;8.568;2022-09-16T21:08:05;3.30;;;1.10;;
11827;SDS011;5971;49.646;8.568;2022-09-16T21:11:10;1.48;;;0.90;;
11827;SDS011;5971;49.646;8.568;2022-09-16T21:14:13;1.58;;;0.90;;
11827;SDS011;5971;49.646;8.568;2022-09-16T21:17:16;3.38;;;1.13;;
11827;SDS011;5971;49.646;8.568;2022-09-16T21:20:19;3.13;;;1.42;;
11827;SDS011;5971;49.646;8.568;2022-09-16T21:23:21;2.60;;;1.23;;
11827;SDS011;5971;49.646;8.568;2022-09-16T21:26:24;1.63;;;0.90;;
11827;SDS011;5971;49.646;8.568;2022-09-16T21:29:26;2.63;;;1.20;;
11827;SDS011;5971;49.646;8.568;2022-09-16T21:32:27;1.52;;;0.98;;
11827;SDS011;5971;49.646;8.568;2022-09-16T21:35:28;2.80;;;1.10;;
11827;SDS011;5971;49.646;8.568;2022-09-16T21:38:30;1.75;;;0.93;;